West End, New York
Current Conditions -  °F | °C
As of 5:15 PM on Saturday 25 Oct 2014 (Local Time) from KNY0 Reporting Station
Overcast Overcast  
Wind Chill: 57°   Ceiling: 6500
Heat Index: 57°   Visibility: 10mi
Dew Point: 44°   Wind: 5mph
Humidity: 61%   Direction: 190°S
Pressure: 29.57"   Gusts: NA
Location:  42.4787°N, 75.0181°W
Report Text: KNY0 252115Z AUTO 19004KT 10SM OVC065 14/07 A2957 RMK AO2 T01400065
Loading
Personal Weather Stations






























Interactive Weather Map
Tropical Storm Tracking
New forecast layout! Learn more

10-Day Weather Forecast

Advertisements
Track Severe Weather on mobile